sensor_id;sensor_type;location;lat;lon;timestamp;pressure;altitude;pressure_sealevel;temperature;humidity
34921;BME280;21128;50.016;20.002;2023-04-01T00:00:59;97134.95;;;10.23;67.88
34921;BME280;21128;50.016;20.002;2023-04-01T00:03:45;97135.28;;;10.20;67.99
34921;BME280;21128;50.016;20.002;2023-04-01T00:06:31;97134.66;;;10.18;67.82
34921;BME280;21128;50.016;20.002;2023-04-01T00:09:17;97156.63;;;10.17;68.52
34921;BME280;21128;50.016;20.002;2023-04-01T00:12:09;97130.75;;;10.14;68.87
34921;BME280;21128;50.016;20.002;2023-04-01T00:14:55;97134.38;;;10.13;69.12
34921;BME280;21128;50.016;20.002;2023-04-01T00:17:41;97133.94;;;10.09;69.06
34921;BME280;21128;50.016;20.002;2023-04-01T00:20:27;97118.34;;;10.08;69.46
34921;BME280;21128;50.016;20.002;2023-04-01T00:23:13;97124.59;;;10.07;69.38
34921;BME280;21128;50.016;20.002;2023-04-01T00:26:02;97118.91;;;10.03;69.49
34921;BME280;21128;50.016;20.002;2023-04-01T00:28:48;97110.41;;;10.01;69.31
34921;BME280;21128;50.016;20.002;2023-04-01T00:31:34;97107.13;;;9.99;70.09
34921;BME280;21128;50.016;20.002;2023-04-01T00:34:19;97108.94;;;9.99;69.67
34921;BME280;21128;50.016;20.002;2023-04-01T00:37:06;97111.12;;;9.95;70.06
34921;BME280;21128;50.016;20.002;2023-04-01T00:39:52;97101.80;;;9.93;70.08
34921;BME280;21128;50.016;20.002;2023-04-01T00:42:37;97107.39;;;9.90;70.43
34921;BME280;21128;50.016;20.002;2023-04-01T00:45:33;97110.39;;;9.86;71.13
34921;BME280;21128;50.016;20.002;2023-04-01T00:48:23;97109.91;;;9.83;70.96
34921;BME280;21128;50.016;20.002;2023-04-01T00:51:39;97106.66;;;9.81;70.83
34921;BME280;21128;50.016;20.002;2023-04-01T00:54:28;97103.41;;;9.79;72.02
34921;BME280;21128;50.016;20.002;2023-04-01T00:57:23;97107.84;;;9.78;71.92
34921;BME280;21128;50.016;20.002;2023-04-01T01:00:12;97102.97;;;9.75;71.69
34921;BME280;21128;50.016;20.002;2023-04-01T01:03:00;97102.31;;;9.73;73.51
34921;BME280;21128;50.016;20.002;2023-04-01T01:15:40;97109.25;;;9.66;73.27
34921;BME280;21128;50.016;20.002;2023-04-01T01:18:38;97118.78;;;9.67;74.42
34921;BME280;21128;50.016;20.002;2023-04-01T01:24:55;97110.25;;;9.65;74.66
34921;BME280;21128;50.016;20.002;2023-04-01T01:27:58;97118.30;;;9.64;74.53
34921;BME280;21128;50.016;20.002;2023-04-01T01:30:49;97118.48;;;9.62;75.01
34921;BME280;21128;50.016;20.002;2023-04-01T01:33:49;97124.73;;;9.61;75.19
34921;BME280;21128;50.016;20.002;2023-04-01T01:36:42;97111.43;;;9.63;75.39
34921;BME280;21128;50.016;20.002;2023-04-01T01:39:31;97115.86;;;9.62;75.79
34921;BME280;21128;50.016;20.002;2023-04-01T01:42:19;97116.05;;;9.61;75.45
34921;BME280;21128;50.016;20.002;2023-04-01T01:45:08;97129.16;;;9.61;74.77
34921;BME280;21128;50.016;20.002;2023-04-01T01:47:55;97131.59;;;9.62;74.98
34921;BME280;21128;50.016;20.002;2023-04-01T01:50:44;97131.59;;;9.62;75.43
34921;BME280;21128;50.016;20.002;2023-04-01T01:53:31;97142.09;;;9.62;74.47
34921;BME280;21128;50.016;20.002;2023-04-01T01:56:18;97136.03;;;9.62;75.76
34921;BME280;21128;50.016;20.002;2023-04-01T01:59:08;97132.59;;;9.61;75.75
34921;BME280;21128;50.016;20.002;2023-04-01T02:01:57;97144.70;;;9.62;75.30
34921;BME280;21128;50.016;20.002;2023-04-01T02:04:45;97132.41;;;9.63;75.00
34921;BME280;21128;50.016;20.002;2023-04-01T02:07:39;97131.59;;;9.62;74.96
34921;BME280;21128;50.016;20.002;2023-04-01T02:10:48;97131.59;;;9.62;74.89
34921;BME280;21128;50.016;20.002;2023-04-01T02:13:51;97132.41;;;9.63;75.65
34921;BME280;21128;50.016;20.002;2023-04-01T02:16:55;97130.97;;;9.60;75.56
34921;BME280;21128;50.016;20.002;2023-04-01T02:22:48;97151.95;;;9.60;75.92
34921;BME280;21128;50.016;20.002;2023-04-01T02:25:36;97147.22;;;9.55;75.78
34921;BME280;21128;50.016;20.002;2023-04-01T02:28:24;97144.95;;;9.52;76.53
34921;BME280;21128;50.016;20.002;2023-04-01T02:31:11;97133.00;;;9.50;75.44
34921;BME280;21128;50.016;20.002;2023-04-01T02:33:58;97139.23;;;9.49;76.59
34921;BME280;21128;50.016;20.002;2023-04-01T02:36:44;97147.46;;;9.46;76.76
34921;BME280;21128;50.016;20.002;2023-04-01T02:39:31;97148.64;;;9.43;75.57
34921;BME280;21128;50.016;20.002;2023-04-01T02:42:16;97156.84;;;9.40;76.65
34921;BME280;21128;50.016;20.002;2023-04-01T02:45:03;97155.39;;;9.38;76.65
34921;BME280;21128;50.016;20.002;2023-04-01T02:47:49;97157.37;;;9.36;76.89
34921;BME280;21128;50.016;20.002;2023-04-01T02:50:34;97151.32;;;9.35;76.74
34921;BME280;21128;50.016;20.002;2023-04-01T02:53:20;97160.33;;;9.33;76.57
34921;BME280;21128;50.016;20.002;2023-04-01T02:56:05;97164.94;;;9.30;77.04
34921;BME280;21128;50.016;20.002;2023-04-01T02:58:52;97154.63;;;9.29;76.75
34921;BME280;21128;50.016;20.002;2023-04-01T03:01:38;97163.94;;;9.31;76.95
34921;BME280;21128;50.016;20.002;2023-04-01T03:04:24;97162.14;;;9.32;77.70
34921;BME280;21128;50.016;20.002;2023-04-01T03:07:09;97156.89;;;9.32;77.63
34921;BME280;21128;50.016;20.002;2023-04-01T03:10:02;97158.70;;;9.31;77.47
34921;BME280;21128;50.016;20.002;2023-04-01T03:12:47;97162.14;;;9.32;77.46
34921;BME280;21128;50.016;20.002;2023-04-01T03:15:33;97169.19;;;9.31;78.22
34921;BME280;21128;50.016;20.002;2023-04-01T03:18:18;97161.33;;;9.31;78.71
34921;BME280;21128;50.016;20.002;2023-04-01T03:21:17;97162.50;;;9.29;77.98
34921;BME280;21128;50.016;20.002;2023-04-01T03:24:03;97164.48;;;9.27;77.60
34921;BME280;21128;50.016;20.002;2023-04-01T03:26:49;97159.24;;;9.27;77.80
34921;BME280;21128;50.016;20.002;2023-04-01T03:29:35;97160.23;;;9.26;78.13
34921;BME280;21128;50.016;20.002;2023-04-01T03:32:20;97155.81;;;9.26;78.28
34921;BME280;21128;50.016;20.002;2023-04-01T03:35:06;97149.58;;;9.27;78.49
34921;BME280;21128;50.016;20.002;2023-04-01T03:37:53;97156.63;;;9.27;79.05
34921;BME280;21128;50.016;20.002;2023-04-01T03:40:42;97160.05;;;9.27;79.29
34921;BME280;21128;50.016;20.002;2023-04-01T03:43:28;97156.63;;;9.27;79.16
34921;BME280;21128;50.016;20.002;2023-04-01T03:46:17;97160.23;;;9.26;78.67
34921;BME280;21128;50.016;20.002;2023-04-01T03:49:07;97162.05;;;9.25;79.65
34921;BME280;21128;50.016;20.002;2023-04-01T03:51:56;97158.61;;;9.25;78.78
34921;BME280;21128;50.016;20.002;2023-04-01T03:54:42;97162.05;;;9.25;79.82
34921;BME280;21128;50.016;20.002;2023-04-01T03:57:28;97164.66;;;9.25;79.18
34921;BME280;21128;50.016;20.002;2023-04-01T04:00:13;97170.72;;;9.26;79.34
34921;BME280;21128;50.016;20.002;2023-04-01T04:02:59;97168.91;;;9.26;78.65
34921;BME280;21128;50.016;20.002;2023-04-01T04:05:47;97171.53;;;9.26;79.57
34921;BME280;21128;50.016;20.002;2023-04-01T04:08:33;97168.91;;;9.26;78.96
34921;BME280;21128;50.016;20.002;2023-04-01T04:11:32;97171.53;;;9.26;78.64
34921;BME280;21128;50.016;20.002;2023-04-01T04:14:21;97173.16;;;9.27;79.57
34921;BME280;21128;50.016;20.002;2023-04-01T04:17:10;97180.21;;;9.27;79.22
34921;BME280;21128;50.016;20.002;2023-04-01T04:20:01;97183.47;;;9.29;78.74
34921;BME280;21128;50.016;20.002;2023-04-01T04:22:46;97183.28;;;9.30;79.36
34921;BME280;21128;50.016;20.002;2023-04-01T04:25:32;97186.72;;;9.31;79.46
34921;BME280;21128;50.016;20.002;2023-04-01T04:28:17;97182.95;;;9.34;79.52
34921;BME280;21128;50.016;20.002;2023-04-01T04:31:04;97189.83;;;9.35;79.55
34921;BME280;21128;50.016;20.002;2023-04-01T04:33:51;97189.83;;;9.35;79.32
34921;BME280;21128;50.016;20.002;2023-04-01T04:36:37;97180.34;;;9.34;79.57
34921;BME280;21128;50.016;20.002;2023-04-01T04:39:22;97179.98;;;9.37;79.56
34921;BME280;21128;50.016;20.002;2023-04-01T04:42:08;97179.61;;;9.40;79.34
34921;BME280;21128;50.016;20.002;2023-04-01T04:44:54;97181.24;;;9.41;79.66
34921;BME280;21128;50.016;20.002;2023-04-01T04:47:40;97179.44;;;9.41;80.11
34921;BME280;21128;50.016;20.002;2023-04-01T04:50:25;97187.15;;;9.43;80.06
34921;BME280;21128;50.016;20.002;2023-04-01T04:53:12;97185.98;;;9.45;79.54
34921;BME280;21128;50.016;20.002;2023-04-01T04:55:58;97186.79;;;9.46;80.31
34921;BME280;21128;50.016;20.002;2023-04-01T04:58:43;97182.36;;;9.46;80.36
34921;BME280;21128;50.016;20.002;2023-04-01T05:01:29;97181.55;;;9.46;79.85
34921;BME280;21128;50.016;20.002;2023-04-01T05:04:14;97186.61;;;9.47;79.94
34921;BME280;21128;50.016;20.002;2023-04-01T05:07:00;97186.42;;;9.49;79.69
34921;BME280;21128;50.016;20.002;2023-04-01T05:09:52;97186.28;;;9.50;79.12
34921;BME280;21128;50.016;20.002;2023-04-01T05:12:37;97193.15;;;9.51;80.00
34921;BME280;21128;50.016;20.002;2023-04-01T05:15:24;97190.53;;;9.51;79.25
34921;BME280;21128;50.016;20.002;2023-04-01T05:18:09;97188.72;;;9.52;79.62
34921;BME280;21128;50.016;20.002;2023-04-01T05:20:55;97190.34;;;9.53;80.27
34921;BME280;21128;50.016;20.002;2023-04-01T05:23:41;97197.03;;;9.55;80.81
34921;BME280;21128;50.016;20.002;2023-04-01T05:26:27;97189.98;;;9.56;80.04
34921;BME280;21128;50.016;20.002;2023-04-01T05:29:13;97195.05;;;9.57;80.49
34921;BME280;21128;50.016;20.002;2023-04-01T05:31:58;97185.55;;;9.56;81.16
34921;BME280;21128;50.016;20.002;2023-04-01T05:34:44;97195.23;;;9.56;82.62
34921;BME280;21128;50.016;20.002;2023-04-01T05:37:30;97190.98;;;9.55;81.48
34921;BME280;21128;50.016;20.002;2023-04-01T05:40:16;97184.73;;;9.56;82.83
34921;BME280;21128;50.016;20.002;2023-04-01T05:43:02;97188.98;;;9.57;82.65
34921;BME280;21128;50.016;20.002;2023-04-01T05:45:48;97187.84;;;9.59;82.83
34921;BME280;21128;50.016;20.002;2023-04-01T05:48:34;97194.47;;;9.70;82.80
34921;BME280;21128;50.016;20.002;2023-04-01T05:51:22;97180.11;;;9.81;82.94
34921;BME280;21128;50.016;20.002;2023-04-01T05:54:08;97181.84;;;9.88;82.94
34921;BME280;21128;50.016;20.002;2023-04-01T05:56:54;97187.58;;;9.92;82.81
34921;BME280;21128;50.016;20.002;2023-04-01T05:59:40;97183.77;;;9.95;82.67
34921;BME280;21128;50.016;20.002;2023-04-01T06:02:26;97174.53;;;9.99;82.47
34921;BME280;21128;50.016;20.002;2023-04-01T06:05:26;97175.19;;;10.01;82.23
34921;BME280;21128;50.016;20.002;2023-04-01T06:08:17;97179.99;;;10.12;81.92
34921;BME280;21128;50.016;20.002;2023-04-01T06:14:42;97177.42;;;10.27;81.54
34921;BME280;21128;50.016;20.002;2023-04-01T06:17:55;97166.02;;;10.34;81.44
34921;BME280;21128;50.016;20.002;2023-04-01T06:21:22;97171.17;;;10.42;80.62
34921;BME280;21128;50.016;20.002;2023-04-01T06:24:27;97177.68;;;10.47;80.58
34921;BME280;21128;50.016;20.002;2023-04-01T06:46:17;97190.81;;;10.47;80.04
34921;BME280;21128;50.016;20.002;2023-04-01T06:53:12;97188.00;;;10.63;79.81
34921;BME280;21128;50.016;20.002;2023-04-01T06:56:14;97189.15;;;10.75;79.56
34921;BME280;21128;50.016;20.002;2023-04-01T07:01:56;97190.33;;;10.87;78.22
34921;BME280;21128;50.016;20.002;2023-04-01T07:04:46;97190.67;;;10.84;78.03
34921;BME280;21128;50.016;20.002;2023-04-01T07:07:44;97196.02;;;10.91;77.49
34921;BME280;21128;50.016;20.002;2023-04-01T07:10:46;97178.54;;;10.83;76.87
34921;BME280;21128;50.016;20.002;2023-04-01T07:13:51;97182.98;;;10.83;76.72
34921;BME280;21128;50.016;20.002;2023-04-01T07:16:47;97191.52;;;10.85;76.32
34921;BME280;21128;50.016;20.002;2023-04-01T07:25:23;97187.22;;;10.98;75.81
34921;BME280;21128;50.016;20.002;2023-04-01T07:28:15;97185.67;;;11.04;75.56
34921;BME280;21128;50.016;20.002;2023-04-01T07:31:50;97192.98;;;11.09;74.79
34921;BME280;21128;50.016;20.002;2023-04-01T07:38:11;97194.45;;;11.11;75.44
34921;BME280;21128;50.016;20.002;2023-04-01T07:44:25;97189.81;;;11.13;74.01
34921;BME280;21128;50.016;20.002;2023-04-01T07:53:46;97192.44;;;11.13;73.94
34921;BME280;21128;50.016;20.002;2023-04-01T07:59:59;97200.41;;;11.20;72.86
34921;BME280;21128;50.016;20.002;2023-04-01T08:05:55;97201.92;;;11.29;73.07
34921;BME280;21128;50.016;20.002;2023-04-01T08:08:56;97202.54;;;11.31;72.68
34921;BME280;21128;50.016;20.002;2023-04-01T08:18:00;97214.33;;;11.35;72.00
34921;BME280;21128;50.016;20.002;2023-04-01T08:21:01;97216.58;;;11.38;71.45
34921;BME280;21128;50.016;20.002;2023-04-01T08:23:51;97214.18;;;11.43;72.19
34921;BME280;21128;50.016;20.002;2023-04-01T08:26:42;97210.46;;;11.52;71.83
34921;BME280;21128;50.016;20.002;2023-04-01T08:29:44;97205.43;;;11.58;71.44
34921;BME280;21128;50.016;20.002;2023-04-01T08:32:37;97202.25;;;11.62;71.04
34921;BME280;21128;50.016;20.002;2023-04-01T08:35:37;97206.58;;;11.70;70.92
34921;BME280;21128;50.016;20.002;2023-04-01T08:38:41;97202.05;;;11.64;70.31
34921;BME280;21128;50.016;20.002;2023-04-01T08:47:46;97208.88;;;11.79;70.33
34921;BME280;21128;50.016;20.002;2023-04-01T09:06:12;97194.76;;;12.78;69.29
34921;BME280;21128;50.016;20.002;2023-04-01T09:09:09;97201.82;;;13.12;68.26
34921;BME280;21128;50.016;20.002;2023-04-01T09:18:59;97191.42;;;13.98;63.41
34921;BME280;21128;50.016;20.002;2023-04-01T09:28:28;97201.81;;;13.18;63.20
34921;BME280;21128;50.016;20.002;2023-04-01T09:58:42;97213.35;;;13.11;63.93
34921;BME280;21128;50.016;20.002;2023-04-01T10:21:20;97240.52;;;11.65;68.36
34921;BME280;21128;50.016;20.002;2023-04-01T10:27:55;97234.60;;;11.41;69.60
34921;BME280;21128;50.016;20.002;2023-04-01T10:37:34;97238.62;;;11.37;71.09
34921;BME280;21128;50.016;20.002;2023-04-01T10:41:04;97245.39;;;11.46;71.55
34921;BME280;21128;50.016;20.002;2023-04-01T10:44:10;97244.81;;;11.51;72.02
34921;BME280;21128;50.016;20.002;2023-04-01T10:53:46;97254.05;;;11.62;71.81
34921;BME280;21128;50.016;20.002;2023-04-01T11:03:10;97252.52;;;11.89;72.14
34921;BME280;21128;50.016;20.002;2023-04-01T11:07:29;97241.25;;;12.23;71.21
34921;BME280;21128;50.016;20.002;2023-04-01T11:22:19;97234.13;;;12.79;66.35
34921;BME280;21128;50.016;20.002;2023-04-01T11:28:51;97240.13;;;12.66;67.63
34921;BME280;21128;50.016;20.002;2023-04-01T11:44:40;97217.00;;;14.50;66.67
34921;BME280;21128;50.016;20.002;2023-04-01T12:00:22;97245.60;;;13.06;65.52
34921;BME280;21128;50.016;20.002;2023-04-01T12:07:24;97240.42;;;12.50;67.96
34921;BME280;21128;50.016;20.002;2023-04-01T12:10:12;97243.20;;;12.42;68.81
34921;BME280;21128;50.016;20.002;2023-04-01T12:13:36;97245.40;;;13.08;70.19
34921;BME280;21128;50.016;20.002;2023-04-01T12:29:09;97244.03;;;14.46;63.06
34921;BME280;21128;50.016;20.002;2023-04-01T12:32:15;97253.57;;;14.20;62.87
34921;BME280;21128;50.016;20.002;2023-04-01T12:35:22;97255.00;;;13.90;63.31
34921;BME280;21128;50.016;20.002;2023-04-01T12:38:36;97252.34;;;13.83;64.02
34921;BME280;21128;50.016;20.002;2023-04-01T12:51:10;97253.57;;;14.20;63.42
34921;BME280;21128;50.016;20.002;2023-04-01T13:19:24;97270.30;;;12.99;65.82
34921;BME280;21128;50.016;20.002;2023-04-01T13:22:41;97255.64;;;13.24;66.78
34921;BME280;21128;50.016;20.002;2023-04-01T13:25:39;97272.98;;;13.46;66.21
34921;BME280;21128;50.016;20.002;2023-04-01T13:28:52;97273.96;;;13.39;65.35
34921;BME280;21128;50.016;20.002;2023-04-01T13:38:06;97289.23;;;12.74;67.02
34921;BME280;21128;50.016;20.002;2023-04-01T13:44:31;97292.70;;;12.47;68.71
34921;BME280;21128;50.016;20.002;2023-04-01T14:03:09;97296.77;;;11.64;73.05
34921;BME280;21128;50.016;20.002;2023-04-01T14:06:11;97295.57;;;11.66;73.19
34921;BME280;21128;50.016;20.002;2023-04-01T14:09:15;97287.56;;;11.74;73.34
34921;BME280;21128;50.016;20.002;2023-04-01T14:12:51;97286.92;;;11.87;73.01
34921;BME280;21128;50.016;20.002;2023-04-01T14:16:25;97285.97;;;12.44;72.10
34921;BME280;21128;50.016;20.002;2023-04-01T14:23:02;97291.09;;;12.52;70.90
34921;BME280;21128;50.016;20.002;2023-04-01T14:38:39;97306.14;;;12.58;72.06
34921;BME280;21128;50.016;20.002;2023-04-01T14:42:36;97309.73;;;12.51;72.13
34921;BME280;21128;50.016;20.002;2023-04-01T14:47:59;97295.83;;;12.35;72.44
34921;BME280;21128;50.016;20.002;2023-04-01T14:50:48;97292.66;;;12.19;73.53
34921;BME280;21128;50.016;20.002;2023-04-01T14:53:40;97314.86;;;12.09;73.75
34921;BME280;21128;50.016;20.002;2023-04-01T14:56:50;97300.65;;;12.04;74.57
34921;BME280;21128;50.016;20.002;2023-04-01T14:59:48;97304.77;;;11.92;74.79
34921;BME280;21128;50.016;20.002;2023-04-01T15:03:08;97310.22;;;11.90;75.69
34921;BME280;21128;50.016;20.002;2023-04-01T15:28:33;97316.70;;;11.73;78.51
34921;BME280;21128;50.016;20.002;2023-04-01T15:34:55;97333.22;;;11.67;79.71
34921;BME280;21128;50.016;20.002;2023-04-01T15:37:55;97331.97;;;11.63;79.43
34921;BME280;21128;50.016;20.002;2023-04-01T15:43:53;97344.14;;;11.49;80.46
34921;BME280;21128;50.016;20.002;2023-04-01T15:46:44;97347.44;;;11.36;81.87
34921;BME280;21128;50.016;20.002;2023-04-01T15:49:42;97343.28;;;11.27;82.52
34921;BME280;21128;50.016;20.002;2023-04-01T15:52:43;97356.87;;;11.16;84.52
34921;BME280;21128;50.016;20.002;2023-04-01T15:58:47;97359.42;;;10.94;84.79
34921;BME280;21128;50.016;20.002;2023-04-01T16:04:58;97366.64;;;10.78;85.28
34921;BME280;21128;50.016;20.002;2023-04-01T16:23:33;97393.31;;;10.52;89.46
34921;BME280;21128;50.016;20.002;2023-04-01T16:26:18;97387.58;;;10.48;88.77
34921;BME280;21128;50.016;20.002;2023-04-01T16:38:31;97395.70;;;10.38;91.11
34921;BME280;21128;50.016;20.002;2023-04-01T16:41:41;97389.63;;;10.38;91.51
34921;BME280;21128;50.016;20.002;2023-04-01T16:47:47;97407.62;;;10.26;95.00
34921;BME280;21128;50.016;20.002;2023-04-01T16:50:58;97416.64;;;10.24;95.23
34921;BME280;21128;50.016;20.002;2023-04-01T16:53:53;97417.96;;;10.20;97.32
34921;BME280;21128;50.016;20.002;2023-04-01T16:56:54;97427.97;;;10.16;97.25
34921;BME280;21128;50.016;20.002;2023-04-01T17:02:51;97438.83;;;10.13;97.08
34921;BME280;21128;50.016;20.002;2023-04-01T17:17:58;97445.55;;;9.84;100.00
34921;BME280;21128;50.016;20.002;2023-04-01T17:23:51;97465.30;;;9.64;100.00
34921;BME280;21128;50.016;20.002;2023-04-01T17:30:10;97465.34;;;9.48;100.00
34921;BME280;21128;50.016;20.002;2023-04-01T17:51:22;97478.17;;;9.35;100.00
34921;BME280;21128;50.016;20.002;2023-04-01T17:54:25;97484.72;;;9.30;100.00
34921;BME280;21128;50.016;20.002;2023-04-01T18:08:57;97503.41;;;9.27;100.00
34921;BME280;21128;50.016;20.002;2023-04-01T18:15:35;97504.41;;;9.26;100.00
34921;BME280;21128;50.016;20.002;2023-04-01T18:21:53;97509.64;;;9.26;100.00
34921;BME280;21128;50.016;20.002;2023-04-01T18:24:45;97519.78;;;9.29;100.00
34921;BME280;21128;50.016;20.002;2023-04-01T18:27:40;97517.16;;;9.29;100.00
34921;BME280;21128;50.016;20.002;2023-04-01T18:30:30;97513.55;;;9.30;100.00
34921;BME280;21128;50.016;20.002;2023-04-01T18:33:23;97521.25;;;9.32;100.00
34921;BME280;21128;50.016;20.002;2023-04-01T18:39:18;97533.88;;;9.28;100.00
34921;BME280;21128;50.016;20.002;2023-04-01T18:42:38;97531.26;;;9.28;100.00
34921;BME280;21128;50.016;20.002;2023-04-01T18:49:25;97539.95;;;9.21;100.00
34921;BME280;21128;50.016;20.002;2023-04-01T18:52:40;97541.10;;;9.18;100.00
34921;BME280;21128;50.016;20.002;2023-04-01T18:55:35;97540.42;;;9.16;100.00
34921;BME280;21128;50.016;20.002;2023-04-01T19:01:27;97554.69;;;9.14;100.00
34921;BME280;21128;50.016;20.002;2023-04-01T19:04:30;97550.77;;;9.10;100.00
34921;BME280;21128;50.016;20.002;2023-04-01T19:25:58;97577.14;;;9.00;100.00
34921;BME280;21128;50.016;20.002;2023-04-01T19:40:55;97593.31;;;8.87;100.00
34921;BME280;21128;50.016;20.002;2023-04-01T19:49:54;97603.61;;;8.81;100.00
34921;BME280;21128;50.016;20.002;2023-04-01T19:52:47;97610.66;;;8.80;100.00
34921;BME280;21128;50.016;20.002;2023-04-01T19:59:34;97617.86;;;8.78;100.00
34921;BME280;21128;50.016;20.002;2023-04-01T20:05:38;97624.08;;;8.77;100.00
34921;BME280;21128;50.016;20.002;2023-04-01T20:14:49;97631.42;;;8.73;100.00
34921;BME280;21128;50.016;20.002;2023-04-01T20:17:43;97634.38;;;8.70;100.00
34921;BME280;21128;50.016;20.002;2023-04-01T20:20:31;97637.16;;;8.69;100.00
34921;BME280;21128;50.016;20.002;2023-04-01T20:23:42;97640.76;;;8.68;100.00
34921;BME280;21128;50.016;20.002;2023-04-01T20:26:34;97638.30;;;8.66;100.00
34921;BME280;21128;50.016;20.002;2023-04-01T20:32:24;97641.88;;;8.65;100.00
34921;BME280;21128;50.016;20.002;2023-04-01T20:44:13;97651.69;;;8.63;100.00
34921;BME280;21128;50.016;20.002;2023-04-01T20:53:16;97653.98;;;8.58;100.00
34921;BME280;21128;50.016;20.002;2023-04-01T20:56:20;97655.63;;;8.59;100.00
34921;BME280;21128;50.016;20.002;2023-04-01T21:02:32;97655.78;;;8.58;100.00
34921;BME280;21128;50.016;20.002;2023-04-01T21:09:06;97665.73;;;8.54;100.00
34921;BME280;21128;50.016;20.002;2023-04-01T21:33:54;97692.70;;;8.46;100.00
34921;BME280;21128;50.016;20.002;2023-04-01T21:37:33;97688.28;;;8.47;100.00
34921;BME280;21128;50.016;20.002;2023-04-01T21:53:13;97704.97;;;8.46;100.00
34921;BME280;21128;50.016;20.002;2023-04-01T22:05:24;97706.93;;;8.44;100.00
34921;BME280;21128;50.016;20.002;2023-04-01T22:24:23;97718.67;;;8.40;100.00
34921;BME280;21128;50.016;20.002;2023-04-01T22:27:24;97721.16;;;8.41;100.00
34921;BME280;21128;50.016;20.002;2023-04-01T22:30:32;97722.95;;;8.41;100.00
34921;BME280;21128;50.016;20.002;2023-04-01T22:33:38;97719.36;;;8.42;100.00
34921;BME280;21128;50.016;20.002;2023-04-01T22:42:58;97723.78;;;8.41;100.00
34921;BME280;21128;50.016;20.002;2023-04-01T22:48:43;97723.61;;;8.43;100.00
34921;BME280;21128;50.016;20.002;2023-04-01T22:54:45;97725.91;;;8.46;100.00
34921;BME280;21128;50.016;20.002;2023-04-01T22:57:35;97738.84;;;8.48;100.00
34921;BME280;21128;50.016;20.002;2023-04-01T23:00:35;97732.78;;;8.47;100.00
34921;BME280;21128;50.016;20.002;2023-04-01T23:03:32;97743.26;;;8.47;100.00
34921;BME280;21128;50.016;20.002;2023-04-01T23:06:25;97743.26;;;8.47;100.00
34921;BME280;21128;50.016;20.002;2023-04-01T23:09:23;97744.23;;;8.46;100.00
34921;BME280;21128;50.016;20.002;2023-04-01T23:12:24;97747.84;;;8.45;100.00
34921;BME280;21128;50.016;20.002;2023-04-01T23:15:13;97739.98;;;8.45;100.00
34921;BME280;21128;50.016;20.002;2023-04-01T23:18:09;97755.69;;;8.45;100.00
34921;BME280;21128;50.016;20.002;2023-04-01T23:21:07;97747.84;;;8.45;100.00
34921;BME280;21128;50.016;20.002;2023-04-01T23:27:24;97753.73;;;8.47;100.00
34921;BME280;21128;50.016;20.002;2023-04-01T23:30:46;97753.07;;;8.45;100.00
34921;BME280;21128;50.016;20.002;2023-04-01T23:33:32;97754.87;;;8.44;100.00
34921;BME280;21128;50.016;20.002;2023-04-01T23:36:19;97761.74;;;8.45;100.00
34921;BME280;21128;50.016;20.002;2023-04-01T23:45:13;97766.32;;;8.43;100.00
34921;BME280;21128;50.016;20.002;2023-04-01T23:48:02;97767.95;;;8.44;100.00
34921;BME280;21128;50.016;20.002;2023-04-01T23:50:48;97761.25;;;8.42;100.00
34921;BME280;21128;50.016;20.002;2023-04-01T23:53:34;97763.05;;;8.41;100.00
34921;BME280;21128;50.016;20.002;2023-04-01T23:56:20;97769.09;;;8.42;100.00
34921;BME280;21128;50.016;20.002;2023-04-01T23:59:15;97769.76;;;8.44;100.00
